WetterOnline ( https://www.wetteronline.de )

Wetter aktuell Büsum

Aktuelles Wetter: Heide/Elpersbüttel (5m)

6-stündlich | Neueste Meldungen
Ortszeit Temperatur Wetter
Di, 20.08. 14:00 19.7° C leicht bewölkt
Di, 20.08. 8:00 14.5° C wolkenlos
Di, 20.08. 2:00 13.9° C fast wolkenlos
Mo, 19.08. 20:00 15.3° C leichter Regen
Mo, 19.08. 14:00 19.1° C wolkig
Mo, 19.08. 8:00 15.0° C wolkig
Mo, 19.08. 2:00 14.4° C wolkig
So, 18.08. 20:00 16.5° C bedeckt
Ortszeit Temperatur Wetter
Di, 20.08. 19:00 18.2° C leicht bewölkt
Di, 20.08. 18:50 18.2° C leicht bewölkt
Di, 20.08. 18:40 18.1° C fast wolkenlos
Di, 20.08. 18:30 18.7° C leicht bewölkt
Di, 20.08. 18:20 18.7° C leicht bewölkt
Di, 20.08. 18:10 18.6° C leicht bewölkt
Di, 20.08. 18:00 18.5° C leicht bewölkt
Di, 20.08. 17:30 19.6° C bedeckt
Di, 20.08. 17:00 18.6° C leicht bewölkt
Di, 20.08. 16:30 20.0° C wolkenlos
Di, 20.08. 16:00 19.6° C wolkenlos
Ortszeit Relative Feuchte Sichtweite
Di, 20.08. 14:00 66% 35 km
Di, 20.08. 8:00 93% 30 km
Di, 20.08. 2:00 89% 40 km
Mo, 19.08. 20:00 93% 15 km
Mo, 19.08. 14:00 68% 45 km
Mo, 19.08. 8:00 92% 28 km
Mo, 19.08. 2:00 94% 25 km
So, 18.08. 20:00 93% 40 km
Ortszeit Relative Feuchte Sichtweite
Di, 20.08. 19:00 72% 55 km
Di, 20.08. 18:50 72% -
Di, 20.08. 18:40 72% -
Di, 20.08. 18:30 69% 50 km
Di, 20.08. 18:20 69% -
Di, 20.08. 18:10 68% -
Di, 20.08. 18:00 70% 50 km
Di, 20.08. 17:30 65% >70 km
Di, 20.08. 17:00 66% 45 km
Di, 20.08. 16:30 65% >70 km
Di, 20.08. 16:00 65% 35 km
Ortszeit Niederschlagsmenge Niederschlagsart
Di, 20.08. 14:00 0.0 l/m2 in 6 Std. -
Di, 20.08. 8:00 0.1 l/m2 in 12 Std. -
Di, 20.08. 2:00 0.1 l/m2 in 6 Std. Regen
Mo, 19.08. 20:00 4 l/m2 in 12 Std. Regen
Mo, 19.08. 14:00 0.0 l/m2 in 6 Std. -
Mo, 19.08. 8:00 0.0 l/m2 in 12 Std. -
Mo, 19.08. 2:00 0.0 l/m2 in 6 Std. -
So, 18.08. 20:00 3 l/m2 in 12 Std. Regen
Ortszeit Niederschlagsmenge Niederschlagsart
Di, 20.08. 19:00 0.0 l/m2 in 1 Std. -
Di, 20.08. 18:50 keine Meldung -
Di, 20.08. 18:40 keine Meldung -
Di, 20.08. 18:30 0.0 l/m2 in 1 Std. -
Di, 20.08. 18:20 keine Meldung -
Di, 20.08. 18:10 keine Meldung -
Di, 20.08. 18:00 0.0 l/m2 in 1 Std. -
Di, 20.08. 17:30 0.0 l/m2 in 1 Std. -
Di, 20.08. 17:00 0.0 l/m2 in 1 Std. -
Di, 20.08. 16:30 0.0 l/m2 in 1 Std. -
Di, 20.08. 16:00 0.0 l/m2 in 1 Std. -
Ortszeit Stärke Spitze Richtung
km/h Bft. km/h Grad Sektor
Di, 20.08. 14:00 24 4 33 260° W
Di, 20.08. 8:00 20 4 26 210° SW
Di, 20.08. 2:00 15 3 24 180° S
Mo, 19.08. 20:00 11 2 56 230° SW
Mo, 19.08. 14:00 33 5 50 230° SW
Mo, 19.08. 8:00 25 4 32 210° SW
Mo, 19.08. 2:00 14 3 25 210° SW
So, 18.08. 20:00 13 3 43 240° SW
Ortszeit Stärke Spitze Richtung
km/h Bft. km/h Grad Sektor
Di, 20.08. 19:00 17 3 22 290° W
Di, 20.08. 18:50 17 3 - 290° W
Di, 20.08. 18:40 17 3 - 290° W
Di, 20.08. 18:30 17 3 22 280° W
Di, 20.08. 18:20 17 3 - 280° W
Di, 20.08. 18:10 18 3 - 270° W
Di, 20.08. 18:00 18 3 25 290° W
Di, 20.08. 17:30 13 3 20 290° W
Di, 20.08. 17:00 14 3 29 280° W
Di, 20.08. 16:30 20 4 28 280° W
Di, 20.08. 16:00 22 4 30 270° W
Ortszeit Untergrenze Bedeckung Gattung
total tief tief mittel hoch
Di, 20.08. 14:00 720 m 2/8 1/8 - - -
Di, 20.08. 8:00 - 0/8 0/8 - - -
Di, 20.08. 2:00 2400 m 1/8 1/8 - - -
Mo, 19.08. 20:00 840 m 8/8 8/8 - - -
Mo, 19.08. 14:00 900 m 5/8 5/8 - - -
Mo, 19.08. 8:00 1500 m 6/8 6/8 - - -
Mo, 19.08. 2:00 9000 m 7/8 0/8 - - -
So, 18.08. 20:00 420 m 8/8 8/8 - - -
Ortszeit Bedeckungsgrad in Achtel und Wolkenuntergrenze
Di, 20.08. 19:00 2(3300m)
Di, 20.08. 18:50 2(3300m)
Di, 20.08. 18:40 1(3300m)
Di, 20.08. 18:30 1(1800m)
Di, 20.08. 18:20 1(1800m) 2(2100m)
Di, 20.08. 18:10 2(2100m)
Di, 20.08. 18:00 1(1410m) 3(3300m)
Di, 20.08. 17:30 8(3300m)
Di, 20.08. 17:00 2(1800m) 4(3300m)
Di, 20.08. 16:30 keine Wolken
Di, 20.08. 16:00 keine Wolken
Ortszeit Luftdruck NN (hPa) Tendenz (hPa in 3 Std.)
Di, 20.08. 14:00 1021 + 0,9
Di, 20.08. 8:00 1018 + 0,8
Di, 20.08. 2:00 1017 + 0,5
Mo, 19.08. 20:00 1016 + 1,2
Mo, 19.08. 14:00 1013 + 1,7
Mo, 19.08. 8:00 1010 + 1,2
Mo, 19.08. 2:00 1008 + 0,7
So, 18.08. 20:00 1006 + 1,0
Ortszeit Luftdruck NN (hPa) Tendenz (hPa in 3 Std.)
Di, 20.08. 19:00 1022 + 0,9
Di, 20.08. 18:50 1022 keine Meldung
Di, 20.08. 18:40 1022 keine Meldung
Di, 20.08. 18:30 1022 + 1,0
Di, 20.08. 18:20 1022 keine Meldung
Di, 20.08. 18:10 1022 keine Meldung
Di, 20.08. 18:00 1022 + 0,9
Di, 20.08. 17:30 1022 + 0,8
Di, 20.08. 17:00 1022 + 1,0
Di, 20.08. 16:30 1022 + 0,8
Di, 20.08. 16:00 1022 + 0,9
Ortszeit Schneehöhe (cm)
Di, 20.08. 14:00 -
Di, 20.08. 8:00 -
Di, 20.08. 2:00 -
Mo, 19.08. 20:00 -
Mo, 19.08. 14:00 -
Mo, 19.08. 8:00 -
Mo, 19.08. 2:00 -
So, 18.08. 20:00 -
Ortszeit Schneehöhe (cm)
Di, 20.08. 19:00 -
Di, 20.08. 18:50 -
Di, 20.08. 18:40 -
Di, 20.08. 18:30 -
Di, 20.08. 18:20 -
Di, 20.08. 18:10 -
Di, 20.08. 18:00 -
Di, 20.08. 17:30 -
Di, 20.08. 17:00 -
Di, 20.08. 16:30 -
Di, 20.08. 16:00 -
Link zu dieser Seite / Seite empfehlen

Das Wetter in ...